Flight Track Log - Related Links

Times and Time Zones

All times are in EDT time to prevent confusion due to time zone crossing. See the N1944E flight status page for this flight to view local times or setup timezone preferences in your user account.

Time Position Orientation Groundspeed Altitude Reporting Facility
EDT Latitude Longitude Course Direction KTS MPH feet Rate Location/Type
Thu 12:22:00 AM 43.8485 -110.5345 29° Northeast  Level FlightAware Approximate
Thu 12:23:00 AM 43.8420 -110.4691 100° East  Level FlightAware Approximate
Thu 12:23:54 AM 43.6544 -110.7169 17° North 111 128 8,300  Level Salt Lake Center
Thu 12:24:00 AM 43.8337 -110.4026 100° East  Level FlightAware Approximate
Thu 12:24:55 AM 43.6833 -110.6936 30° Northeast 124 143 9,300  Level Salt Lake Center
Thu 12:25:00 AM 43.8180 -110.3387 109° East  Level FlightAware Approximate
Thu 12:25:56 AM 43.7072 -110.6597 46° Northeast 126 145 10,200  Level Salt Lake Center
Thu 12:26:00 AM 43.8364 -110.2782 50° Northeast  Level FlightAware Approximate
Thu 12:26:57 AM 43.7403 -110.6331 30° Northeast 137 158 11,300  Level Salt Lake Center
Thu 12:27:00 AM 43.8676 -110.2263 50° Northeast  Level FlightAware Approximate
Thu 12:27:58 AM 43.7831 -110.6047 26° Northeast 142 163 12,300  Level Salt Lake Center
Thu 12:28:00 AM 43.8970 -110.1726 55° Northeast  Level FlightAware Approximate
Thu 12:28:59 AM 43.8169 -110.5708 36° Northeast 153 176 13,300  Level Salt Lake Center
Thu 12:30:01 AM 43.8564 -110.5397 30° Northeast 162 186 14,100 829 Climbing Salt Lake Center
Thu 12:31:02 AM 43.8811 -110.4825 59° Northeast 169 194 15,000 885 Climbing Salt Lake Center
Thu 12:32:03 AM 43.9061 -110.4253 59° Northeast 173 199 15,900 836 Climbing Salt Lake Center
Thu 12:33:04 AM 43.9331 -110.3667 57° Northeast 180 207 16,700 541 Climbing Salt Lake Center
Thu 12:34:05 AM 43.9575 -110.3019 62° Northeast 188 216 17,000 295 Climbing Salt Lake Center
Thu 12:35:06 AM 43.9867 -110.2339 59° Northeast 202 232 17,300 -49 Climbing Salt Lake Center
Thu 12:36:08 AM 44.0033 -110.1456 75° East 207 238 16,900 -98 Descending Salt Lake Center
Thu 12:37:09 AM 44.0236 -110.0725 69° East 211 243 17,100 49 Climbing Salt Lake Center
Thu 12:38:10 AM 44.0392 -109.9983 74° East 210 242 17,000 -49 Descending Salt Lake Center
Thu 12:39:11 AM 44.0614 -109.9097 71° East 215 247 17,000 49 Level Salt Lake Center
Thu 12:40:12 AM 44.0733 -109.8344 78° East 213 245 17,100 98 Climbing Salt Lake Center
Thu 12:41:13 AM 44.0953 -109.7614 67° East 212 244 17,200 -49 Climbing Salt Lake Center
Thu 12:42:14 AM 44.1217 -109.6761 67° East 213 245 17,000 -98 Descending Salt Lake Center
Thu 12:43:15 AM 44.1353 -109.6028 75° East 210 242 17,000 -393 Level Salt Lake Center
Thu 12:44:16 AM 44.1539 -109.5142 74° East 213 245 16,200 -732 Descending Salt Lake Center
Thu 12:45:18 AM 44.1736 -109.4392 70° East 215 247 15,500 -585 Descending Salt Lake Center
Thu 12:46:19 AM 44.1897 -109.3597 74° East 215 247 15,000 -246 Descending Salt Lake Center
Thu 12:47:20 AM 44.2044 -109.2919 73° East 194 223 15,000 49 Level Salt Lake Center
Thu 12:48:21 AM 44.2203 -109.2294 71° East 177 204 15,100  Climbing Salt Lake Center
Thu 12:49:22 AM 44.2336 -109.1672 73° East 170 196 15,000 -49 Descending Salt Lake Center
Thu 12:50:23 AM 44.2431 -109.1053 78° East 166 191 15,000  Level Salt Lake Center
Thu 12:51:24 AM 44.2628 -109.0508 63° Northeast 159 183 15,000 -148 Level Salt Lake Center
Thu 12:52:25 AM 44.2814 -108.9944 65° Northeast 161 185 14,700 -689 Descending Salt Lake Center
Thu 12:53:26 AM 44.2928 -108.9064 80° East 182 209 13,600 -984 Descending Salt Lake Center
Thu 12:54:27 AM 44.3072 -108.8281 76° East 196 226 12,700 -984 Descending Salt Lake Center
Thu 12:55:28 AM 44.3233 -108.7519 73° East 202 232 11,600 -1,033 Descending Salt Lake Center
Thu 12:56:29 AM 44.2953 -108.6861 121° Southeast 201 231 10,600 -1,033 Descending Salt Lake Center
Thu 12:57:30 AM 44.2611 -108.7228 218° Southwest 199 229 9,500 -443 Descending Salt Lake Center
Thu 12:58:31 AM 44.2986 -108.7661 320° Northwest 183 211 9,700 197 Climbing Salt Lake Center

Login

Don't have an account? Register now (free) for customized features, flight alerts, and more!